Llagostera (Gironès)





Hora UTC 03:25
Temperatura 11.9 ºC
Humitat 94.0 %
Pressió 1013.2 hPa
Pluja 0.0 mm
Velocitat vent 0.0 km/h
Direcció vent

Dades diàries 2024-05-30



Hora UTC (hivern +1h; estiu +2h)
Temperatura (ºC) Humitat (%) Pressió (hPa) Velocitat vent (km/h) Precipitació (mm)
Hora UTC Aire Humitat Pressió Vel. Dir. Vel. Max Dir. Intent. màx 5 min.
00:05 15.4 92.0 1014.6 0.0 0.0 0.0
00:15 15.4 93.0 1014.6 0.0 0.0 0.0
00:25 15.6 94.0 1014.6 0.0 0.0 0.0
00:35 15.7 94.0 1014.7 0.0 0.0 0.0
00:45 15.6 94.0 1014.5 4.8 4.8 0.0
00:55 15.4 93.0 1014.5 1.6 6.4 0.0
01:05 15.4 94.0 1014.5 0.0 6.4 0.0
01:15 14.8 93.0 1014.3 3.2 6.4 0.0
01:25 14.5 93.0 1014.2 3.2 6.4 0.0
01:35 14.0 93.0 1014.0 3.2 6.4 0.0
01:45 13.9 93.0 1014.1 0.0 6.4 0.0
01:55 13.7 93.0 1014.1 0.0 6.4 0.0
02:05 13.5 93.0 1013.9 0.0 6.4 0.0
02:15 12.9 93.0 1013.8 0.0 6.4 0.0
02:25 12.8 94.0 1013.8 0.0 6.4 0.0
02:35 12.8 94.0 1013.8 0.0 6.4 0.0
02:45 12.8 94.0 1013.6 0.0 6.4 0.0
02:55 12.4 94.0 1013.6 0.0 6.4 0.0
03:05 12.2 94.0 1013.5 0.0 6.4 0.0
03:15 12.2 94.0 1013.3 0.0 6.4 0.0
03:25 11.9 94.0 1013.2 0.0 6.4 0.0
Màxima 16.1 94.0 1014.7 4.8 6.4 0.0
Mínima 11.9 92.0 1013.2
Total 0.0